createdAt,value
2022-08-04T00:01:41.552Z,16.87
2022-08-04T00:04:34.710Z,16.96
2022-08-04T00:07:43.864Z,16.74
2022-08-04T00:10:13.642Z,16.66
2022-08-04T00:12:43.511Z,16.69
2022-08-04T00:15:14.943Z,16.78
2022-08-04T00:17:59.579Z,16.93
2022-08-04T00:20:30.384Z,17.01
2022-08-04T00:22:58.137Z,17.07
2022-08-04T00:25:25.670Z,17.07
2022-08-04T00:27:52.695Z,17.13
2022-08-04T00:30:19.408Z,17.25
2022-08-04T00:32:46.295Z,17.28
2022-08-04T00:35:17.380Z,17.33
2022-08-04T00:37:47.521Z,17.16
2022-08-04T00:40:19.789Z,17.15
2022-08-04T00:42:59.073Z,17.21
2022-08-04T00:46:10.905Z,17.19
2022-08-04T00:48:53.592Z,17.08
2022-08-04T00:51:33.789Z,17.04
2022-08-04T00:54:35.531Z,16.95
2022-08-04T00:57:34.669Z,16.93
2022-08-04T01:00:13.455Z,16.93
2022-08-04T01:03:04.768Z,16.87
2022-08-04T01:05:46.921Z,16.92
2022-08-04T01:08:16.103Z,16.86
2022-08-04T01:10:48.731Z,16.75
2022-08-04T01:13:34.257Z,16.73
2022-08-04T01:16:05.348Z,16.72
2022-08-04T01:18:44.185Z,16.75
2022-08-04T01:21:29.101Z,16.55
2022-08-04T01:24:14.300Z,16.62
2022-08-04T01:27:06.176Z,16.61
2022-08-04T01:29:49.223Z,16.53
2022-08-04T01:32:28.005Z,16.50
2022-08-04T01:35:05.482Z,16.47
2022-08-04T01:38:01.756Z,16.46
2022-08-04T01:40:45.575Z,16.22
2022-08-04T01:43:14.131Z,16.31
2022-08-04T01:45:41.893Z,16.33
2022-08-04T01:48:08.852Z,16.27
2022-08-04T01:50:37.078Z,16.29
2022-08-04T01:53:04.966Z,16.31
2022-08-04T01:55:55.102Z,16.28
2022-08-04T01:58:19.675Z,16.40
2022-08-04T02:01:05.106Z,16.41
2022-08-04T02:04:18.417Z,16.21
2022-08-04T02:06:36.737Z,16.13
2022-08-04T02:09:10.449Z,16.04
2022-08-04T02:11:40.203Z,16.00
2022-08-04T02:14:38.107Z,15.96
2022-08-04T02:17:19.860Z,15.78
2022-08-04T02:20:19.970Z,15.57
2022-08-04T02:23:01.462Z,15.61
2022-08-04T02:25:32.594Z,15.59
2022-08-04T02:28:30.072Z,15.66
2022-08-04T02:30:56.673Z,15.67
2022-08-04T02:33:35.641Z,15.49
2022-08-04T02:36:04.437Z,15.55
2022-08-04T02:38:36.869Z,15.61
2022-08-04T02:41:05.922Z,15.66
2022-08-04T02:43:50.848Z,15.58
2022-08-04T02:46:20.550Z,15.58
2022-08-04T02:48:48.857Z,15.55
2022-08-04T02:51:18.125Z,15.58
2022-08-04T02:53:47.052Z,15.56
2022-08-04T02:56:18.909Z,15.53
2022-08-04T02:58:49.236Z,15.46
2022-08-04T03:01:15.895Z,15.53
2022-08-04T03:03:59.572Z,15.32
2022-08-04T03:06:40.199Z,15.18
2022-08-04T03:09:54.843Z,14.99
2022-08-04T03:12:46.342Z,14.71
2022-08-04T03:15:30.054Z,14.57
2022-08-04T03:18:15.195Z,14.43
2022-08-04T03:21:08.060Z,14.32
2022-08-04T03:23:43.429Z,14.12
2022-08-04T03:26:25.076Z,14.07
2022-08-04T03:29:26.475Z,14.09
2022-08-04T03:32:25.468Z,14.05
2022-08-04T03:35:13.461Z,14.11
2022-08-04T03:37:58.868Z,14.10
2022-08-04T03:40:40.528Z,14.16
2022-08-04T03:43:57.785Z,14.26
2022-08-04T03:46:41.564Z,14.51
2022-08-04T03:49:48.412Z,14.70
2022-08-04T03:53:11.156Z,14.90
2022-08-04T03:56:02.145Z,15.06
2022-08-04T03:58:52.762Z,15.26
2022-08-04T04:01:19.298Z,15.38
2022-08-04T04:04:19.710Z,15.48
2022-08-04T04:06:54.154Z,15.60
2022-08-04T04:10:11.593Z,15.85
2022-08-04T04:12:56.267Z,16.04
2022-08-04T16:22:31.402Z,31.35
2022-08-04T16:24:58.360Z,30.94
2022-08-04T16:27:42.498Z,30.25
2022-08-04T16:30:14.455Z,30.57
2022-08-04T16:32:46.395Z,30.33
2022-08-04T16:35:21.437Z,29.98
2022-08-04T16:37:48.133Z,29.74
2022-08-04T16:40:38.179Z,29.62
2022-08-04T16:43:09.657Z,29.54
2022-08-04T16:45:51.225Z,29.81
2022-08-04T16:48:18.964Z,29.79
2022-08-04T16:50:49.347Z,29.75
2022-08-04T16:54:02.825Z,29.55
2022-08-04T16:56:05.976Z,29.56
2022-08-04T16:58:36.678Z,29.43
2022-08-04T17:01:32.945Z,29.37
2022-08-04T17:04:05.236Z,29.14
2022-08-04T17:06:40.582Z,29.13
2022-08-04T17:09:11.935Z,29.16
2022-08-04T17:11:38.707Z,28.98
2022-08-04T17:14:06.423Z,28.84
2022-08-04T17:16:35.641Z,28.79
2022-08-04T17:19:03.723Z,28.61
2022-08-04T17:21:32.637Z,28.54
2022-08-04T17:24:14.327Z,28.13
2022-08-04T17:26:52.032Z,28.10
2022-08-04T17:29:42.862Z,28.14
2022-08-04T17:32:19.780Z,28.09
2022-08-04T17:34:51.324Z,28.02
2022-08-04T17:37:41.282Z,27.87
2022-08-04T17:40:12.199Z,27.71
2022-08-04T17:42:40.456Z,27.53
2022-08-04T17:48:00.360Z,27.21
2022-08-04T17:50:34.842Z,26.96
2022-08-04T17:53:12.155Z,26.71
2022-08-04T17:55:47.126Z,26.53
2022-08-04T17:58:22.236Z,26.56
2022-08-04T18:01:23.738Z,26.40
2022-08-04T18:03:51.593Z,26.42
2022-08-04T18:06:20.970Z,26.48
2022-08-04T18:08:59.057Z,26.41
2022-08-04T18:11:41.795Z,26.39
2022-08-04T18:14:10.410Z,26.41
2022-08-04T18:16:46.600Z,26.24
2022-08-04T18:19:18.974Z,26.28
2022-08-04T18:22:00.012Z,25.97
2022-08-04T18:24:36.009Z,25.58
2022-08-04T18:27:24.077Z,25.52
2022-08-04T18:30:34.088Z,25.51
2022-08-04T18:33:04.295Z,25.34
2022-08-04T18:36:31.373Z,25.22
2022-08-04T18:38:22.366Z,25.11
2022-08-04T18:40:54.644Z,24.92
2022-08-04T18:43:28.174Z,24.86
2022-08-04T18:45:58.088Z,24.80
2022-08-04T18:48:36.135Z,24.65
2022-08-04T18:51:23.065Z,24.57
2022-08-04T18:53:58.333Z,24.49
2022-08-04T18:56:29.810Z,24.41
2022-08-04T18:59:01.883Z,24.39
2022-08-04T19:02:12.792Z,24.28
2022-08-04T19:04:33.248Z,24.11
2022-08-04T19:07:29.652Z,24.18
2022-08-04T19:09:53.770Z,24.22
2022-08-04T19:12:26.740Z,24.35
2022-08-04T19:14:58.806Z,24.22
2022-08-04T19:17:54.149Z,24.21
2022-08-04T19:20:25.741Z,24.16
2022-08-04T19:24:28.243Z,24.14
2022-08-04T19:26:03.872Z,24.09
2022-08-04T19:28:33.976Z,23.85
2022-08-04T19:31:01.862Z,23.73
2022-08-04T19:33:55.392Z,23.54
2022-08-04T19:36:17.148Z,23.46
2022-08-04T19:38:45.775Z,23.08
2022-08-04T19:41:18.228Z,23.02
2022-08-04T19:43:47.114Z,22.81
2022-08-04T19:46:17.736Z,22.55
2022-08-04T19:48:59.133Z,22.29
2022-08-04T19:51:33.380Z,22.22
2022-08-04T19:54:02.855Z,22.22
2022-08-04T19:56:40.151Z,22.13
2022-08-04T19:59:28.408Z,22.05
2022-08-04T20:02:03.466Z,22.09
2022-08-04T20:04:31.225Z,22.12
2022-08-04T20:07:02.716Z,22.19
2022-08-04T20:09:37.341Z,22.15
2022-08-04T20:12:05.221Z,22.23
2022-08-04T20:14:33.306Z,22.21
2022-08-04T20:17:10.592Z,22.29
2022-08-04T20:19:39.166Z,22.14
2022-08-04T20:22:50.912Z,22.29
2022-08-04T20:25:17.965Z,22.33
2022-08-04T20:28:00.272Z,22.28
2022-08-04T20:30:37.448Z,21.74
2022-08-04T20:33:06.918Z,21.93
2022-08-04T20:36:00.622Z,21.80
2022-08-04T20:38:33.606Z,21.93
2022-08-04T20:41:05.103Z,21.82
2022-08-04T20:43:35.417Z,21.75
2022-08-04T20:46:18.224Z,21.52
2022-08-04T20:48:51.614Z,21.54
2022-08-04T20:51:20.008Z,21.50
2022-08-04T20:53:59.064Z,21.39
2022-08-04T20:56:31.158Z,21.26
2022-08-04T20:59:07.901Z,21.12
2022-08-04T21:01:34.926Z,20.82
2022-08-04T21:04:28.020Z,20.71
2022-08-04T21:06:57.399Z,20.70
2022-08-04T21:09:26.542Z,20.70
2022-08-04T21:12:05.090Z,20.61
2022-08-04T21:14:31.775Z,20.56
2022-08-04T21:16:58.957Z,20.49
2022-08-04T21:19:27.120Z,20.44
2022-08-04T21:21:54.373Z,20.56
2022-08-04T21:24:25.883Z,20.59
2022-08-04T21:26:56.619Z,20.66
2022-08-04T21:32:13.109Z,20.69
2022-08-04T21:34:40.603Z,20.64
2022-08-04T21:37:11.183Z,20.72
2022-08-04T21:39:50.717Z,20.72
2022-08-04T21:42:29.425Z,20.79
2022-08-04T21:44:57.695Z,20.85
2022-08-04T21:47:24.490Z,20.82
2022-08-04T21:49:56.940Z,20.92
2022-08-04T21:52:24.551Z,20.94
2022-08-04T21:54:54.625Z,20.99
2022-08-04T21:57:24.666Z,20.86
2022-08-04T21:59:51.763Z,20.92
2022-08-04T22:02:18.457Z,20.86
2022-08-04T22:04:45.235Z,20.86
2022-08-04T22:07:12.519Z,20.80
2022-08-04T22:10:00.255Z,20.69
2022-08-04T22:12:29.859Z,20.65
2022-08-04T22:14:57.646Z,20.50
2022-08-04T22:17:29.485Z,20.45
2022-08-04T22:20:02.839Z,20.25
2022-08-04T22:22:30.097Z,20.45
2022-08-04T22:25:02.002Z,20.39
2022-08-04T22:27:58.058Z,20.36
2022-08-04T22:30:29.154Z,20.36
2022-08-04T22:33:00.396Z,20.33
2022-08-04T22:35:35.546Z,20.23
2022-08-04T22:38:21.322Z,20.19
2022-08-04T22:41:00.141Z,20.24
2022-08-04T22:43:32.602Z,20.16
2022-08-04T22:46:01.807Z,20.13
2022-08-04T22:48:32.111Z,19.88
2022-08-04T22:50:59.902Z,19.85
2022-08-04T22:53:26.729Z,19.84
2022-08-04T22:56:07.314Z,19.83
2022-08-04T22:58:45.841Z,19.76
2022-08-04T23:01:18.420Z,19.69
2022-08-04T23:03:51.052Z,19.62
2022-08-04T23:06:25.117Z,19.62
2022-08-04T23:08:52.709Z,19.64
2022-08-04T23:11:19.447Z,19.65
2022-08-04T23:13:46.038Z,19.60
2022-08-04T23:16:14.315Z,19.54
2022-08-04T23:18:42.362Z,19.43
2022-08-04T23:21:12.571Z,19.34
2022-08-04T23:23:45.489Z,19.33
2022-08-04T23:26:27.629Z,19.30
2022-08-04T23:28:58.147Z,19.22
2022-08-04T23:31:25.320Z,19.16
2022-08-04T23:34:08.792Z,19.10
2022-08-04T23:36:35.512Z,19.05
2022-08-04T23:39:05.616Z,18.99
2022-08-04T23:41:53.659Z,19.06
2022-08-04T23:44:24.839Z,19.04
2022-08-04T23:47:02.861Z,19.05
2022-08-04T23:49:43.888Z,19.03
2022-08-04T23:52:23.068Z,18.98
2022-08-04T23:54:55.214Z,18.90
2022-08-04T23:57:22.305Z,18.98
2022-08-04T23:59:54.142Z,18.92
